sensor_id;sensor_type;location;lat;lon;timestamp;temperature;humidity
39493;DHT22;25176;51.060;3.720;2023-02-08T00:01:41;4.00;98.90
39493;DHT22;25176;51.060;3.720;2023-02-08T00:04:07;3.90;98.60
39493;DHT22;25176;51.060;3.720;2023-02-08T00:06:32;4.00;98.80
39493;DHT22;25176;51.060;3.720;2023-02-08T00:08:58;3.90;98.70
39493;DHT22;25176;51.060;3.720;2023-02-08T00:11:25;3.80;99.00
39493;DHT22;25176;51.060;3.720;2023-02-08T00:13:51;3.80;99.00
39493;DHT22;25176;51.060;3.720;2023-02-08T00:16:16;3.80;98.90
39493;DHT22;25176;51.060;3.720;2023-02-08T00:18:42;3.70;98.90
39493;DHT22;25176;51.060;3.720;2023-02-08T00:21:08;3.80;99.10
39493;DHT22;25176;51.060;3.720;2023-02-08T00:23:34;3.80;99.00
39493;DHT22;25176;51.060;3.720;2023-02-08T00:26:00;3.90;98.80
39493;DHT22;25176;51.060;3.720;2023-02-08T00:28:25;3.90;98.50
39493;DHT22;25176;51.060;3.720;2023-02-08T00:30:51;4.00;98.70
39493;DHT22;25176;51.060;3.720;2023-02-08T00:33:17;4.00;98.50
39493;DHT22;25176;51.060;3.720;2023-02-08T00:35:44;3.90;98.30
39493;DHT22;25176;51.060;3.720;2023-02-08T00:38:10;3.80;98.60
39493;DHT22;25176;51.060;3.720;2023-02-08T00:40:36;3.80;98.70
39493;DHT22;25176;51.060;3.720;2023-02-08T00:43:01;3.80;98.90
39493;DHT22;25176;51.060;3.720;2023-02-08T00:45:27;3.60;98.80
39493;DHT22;25176;51.060;3.720;2023-02-08T00:47:52;3.70;99.20
39493;DHT22;25176;51.060;3.720;2023-02-08T00:50:18;3.70;99.10
39493;DHT22;25176;51.060;3.720;2023-02-08T00:52:43;3.70;98.90
39493;DHT22;25176;51.060;3.720;2023-02-08T00:55:09;3.70;98.80
39493;DHT22;25176;51.060;3.720;2023-02-08T00:57:34;3.80;98.90
39493;DHT22;25176;51.060;3.720;2023-02-08T01:00:00;3.80;98.70
39493;DHT22;25176;51.060;3.720;2023-02-08T01:02:26;3.80;98.70
39493;DHT22;25176;51.060;3.720;2023-02-08T01:04:52;3.80;98.70
39493;DHT22;25176;51.060;3.720;2023-02-08T01:07:17;3.80;98.60
39493;DHT22;25176;51.060;3.720;2023-02-08T01:09:43;3.80;98.60
39493;DHT22;25176;51.060;3.720;2023-02-08T01:12:08;3.80;98.50
39493;DHT22;25176;51.060;3.720;2023-02-08T01:14:35;3.70;98.60
39493;DHT22;25176;51.060;3.720;2023-02-08T01:17:01;3.50;98.90
39493;DHT22;25176;51.060;3.720;2023-02-08T01:19:27;3.50;99.10
39493;DHT22;25176;51.060;3.720;2023-02-08T01:21:52;3.60;98.80
39493;DHT22;25176;51.060;3.720;2023-02-08T01:24:19;3.30;98.90
39493;DHT22;25176;51.060;3.720;2023-02-08T01:26:44;3.20;99.50
39493;DHT22;25176;51.060;3.720;2023-02-08T01:29:10;3.20;99.60
39493;DHT22;25176;51.060;3.720;2023-02-08T01:31:36;3.30;99.60
39493;DHT22;25176;51.060;3.720;2023-02-08T01:34:02;3.30;99.30
39493;DHT22;25176;51.060;3.720;2023-02-08T01:36:29;3.20;99.60
39493;DHT22;25176;51.060;3.720;2023-02-08T01:38:55;3.20;99.50
39493;DHT22;25176;51.060;3.720;2023-02-08T01:41:24;3.30;99.50
39493;DHT22;25176;51.060;3.720;2023-02-08T01:46:24;3.30;99.40
39493;DHT22;25176;51.060;3.720;2023-02-08T01:48:50;3.40;99.50
39493;DHT22;25176;51.060;3.720;2023-02-08T01:51:19;3.30;99.20
39493;DHT22;25176;51.060;3.720;2023-02-08T01:53:45;3.20;99.50
39493;DHT22;25176;51.060;3.720;2023-02-08T01:56:14;3.30;99.70
39493;DHT22;25176;51.060;3.720;2023-02-08T01:58:43;3.30;99.30
39493;DHT22;25176;51.060;3.720;2023-02-08T02:01:09;3.20;99.60
39493;DHT22;25176;51.060;3.720;2023-02-08T02:03:35;3.30;99.60
39493;DHT22;25176;51.060;3.720;2023-02-08T02:06:02;3.40;99.50
39493;DHT22;25176;51.060;3.720;2023-02-08T02:08:28;3.40;99.40
39493;DHT22;25176;51.060;3.720;2023-02-08T02:10:54;3.50;99.20
39493;DHT22;25176;51.060;3.720;2023-02-08T02:13:21;3.50;99.10
39493;DHT22;25176;51.060;3.720;2023-02-08T02:15:47;3.50;99.10
39493;DHT22;25176;51.060;3.720;2023-02-08T02:18:24;3.60;98.80
39493;DHT22;25176;51.060;3.720;2023-02-08T02:26:04;3.30;99.20
39493;DHT22;25176;51.060;3.720;2023-02-08T02:31:25;3.40;99.30
39493;DHT22;25176;51.060;3.720;2023-02-08T02:36:21;3.20;99.10
39493;DHT22;25176;51.060;3.720;2023-02-08T02:52:23;3.00;99.50
39493;DHT22;25176;51.060;3.720;2023-02-08T02:54:51;2.90;99.70
39493;DHT22;25176;51.060;3.720;2023-02-08T02:57:21;2.90;99.90
39493;DHT22;25176;51.060;3.720;2023-02-08T02:59:48;3.00;99.40
39493;DHT22;25176;51.060;3.720;2023-02-08T03:02:14;2.90;99.70
39493;DHT22;25176;51.060;3.720;2023-02-08T03:09:51;2.70;99.90
39493;DHT22;25176;51.060;3.720;2023-02-08T03:12:33;2.60;99.90
39493;DHT22;25176;51.060;3.720;2023-02-08T03:17:43;2.60;99.90
39493;DHT22;25176;51.060;3.720;2023-02-08T03:20:23;2.70;99.90
39493;DHT22;25176;51.060;3.720;2023-02-08T03:22:55;2.70;99.90
39493;DHT22;25176;51.060;3.720;2023-02-08T03:25:25;2.80;99.90
39493;DHT22;25176;51.060;3.720;2023-02-08T03:27:54;2.80;99.70
39493;DHT22;25176;51.060;3.720;2023-02-08T03:30:29;2.90;99.70
39493;DHT22;25176;51.060;3.720;2023-02-08T03:35:24;2.60;99.90
39493;DHT22;25176;51.060;3.720;2023-02-08T03:40:45;2.80;99.90
39493;DHT22;25176;51.060;3.720;2023-02-08T03:43:30;2.80;99.90
39493;DHT22;25176;51.060;3.720;2023-02-08T03:46:17;2.80;99.50
39493;DHT22;25176;51.060;3.720;2023-02-08T03:48:45;2.80;99.90
39493;DHT22;25176;51.060;3.720;2023-02-08T03:51:10;2.70;99.90
39493;DHT22;25176;51.060;3.720;2023-02-08T03:53:36;2.80;99.90
39493;DHT22;25176;51.060;3.720;2023-02-08T03:56:10;3.00;99.90
39493;DHT22;25176;51.060;3.720;2023-02-08T03:58:40;2.90;99.30
39493;DHT22;25176;51.060;3.720;2023-02-08T04:01:11;2.70;99.50
39493;DHT22;25176;51.060;3.720;2023-02-08T04:03:37;2.60;99.90
39493;DHT22;25176;51.060;3.720;2023-02-08T04:06:03;2.60;99.90
39493;DHT22;25176;51.060;3.720;2023-02-08T04:08:29;2.70;99.90
39493;DHT22;25176;51.060;3.720;2023-02-08T04:10:54;2.70;99.90
39493;DHT22;25176;51.060;3.720;2023-02-08T04:13:20;2.80;99.90
39493;DHT22;25176;51.060;3.720;2023-02-08T04:15:45;2.90;99.90
39493;DHT22;25176;51.060;3.720;2023-02-08T04:18:11;2.90;99.70
39493;DHT22;25176;51.060;3.720;2023-02-08T04:20:37;2.90;99.80
39493;DHT22;25176;51.060;3.720;2023-02-08T04:23:02;2.80;99.70
39493;DHT22;25176;51.060;3.720;2023-02-08T04:25:28;2.80;99.90
39493;DHT22;25176;51.060;3.720;2023-02-08T04:27:53;2.70;99.90
39493;DHT22;25176;51.060;3.720;2023-02-08T04:30:19;2.80;99.90
39493;DHT22;25176;51.060;3.720;2023-02-08T04:32:44;2.80;99.90
39493;DHT22;25176;51.060;3.720;2023-02-08T04:35:10;2.80;99.90
39493;DHT22;25176;51.060;3.720;2023-02-08T04:37:35;2.90;99.90
39493;DHT22;25176;51.060;3.720;2023-02-08T04:40:01;2.70;99.80
39493;DHT22;25176;51.060;3.720;2023-02-08T04:42:26;2.70;99.90
39493;DHT22;25176;51.060;3.720;2023-02-08T04:44:52;2.70;99.90
39493;DHT22;25176;51.060;3.720;2023-02-08T04:47:17;2.70;99.90
39493;DHT22;25176;51.060;3.720;2023-02-08T04:49:43;2.70;99.90
39493;DHT22;25176;51.060;3.720;2023-02-08T04:52:08;2.60;99.90
39493;DHT22;25176;51.060;3.720;2023-02-08T04:54:34;2.50;99.90
39493;DHT22;25176;51.060;3.720;2023-02-08T04:56:59;2.50;99.90
39493;DHT22;25176;51.060;3.720;2023-02-08T04:59:25;2.40;99.90
39493;DHT22;25176;51.060;3.720;2023-02-08T05:01:50;2.40;99.90
39493;DHT22;25176;51.060;3.720;2023-02-08T05:04:16;2.50;99.90
39493;DHT22;25176;51.060;3.720;2023-02-08T05:06:41;2.20;99.90
39493;DHT22;25176;51.060;3.720;2023-02-08T05:09:07;2.10;99.90
39493;DHT22;25176;51.060;3.720;2023-02-08T05:11:33;2.10;99.90
39493;DHT22;25176;51.060;3.720;2023-02-08T05:13:59;2.10;99.90
39493;DHT22;25176;51.060;3.720;2023-02-08T05:16:24;2.10;99.90
39493;DHT22;25176;51.060;3.720;2023-02-08T05:18:50;2.10;99.90
39493;DHT22;25176;51.060;3.720;2023-02-08T05:21:15;2.10;99.90
39493;DHT22;25176;51.060;3.720;2023-02-08T05:23:40;2.10;99.90
39493;DHT22;25176;51.060;3.720;2023-02-08T05:26:06;2.00;99.90
39493;DHT22;25176;51.060;3.720;2023-02-08T05:28:32;2.10;99.90
39493;DHT22;25176;51.060;3.720;2023-02-08T05:30:58;2.20;99.90
39493;DHT22;25176;51.060;3.720;2023-02-08T05:33:23;2.20;99.90
39493;DHT22;25176;51.060;3.720;2023-02-08T05:35:49;2.30;99.90
39493;DHT22;25176;51.060;3.720;2023-02-08T05:38:14;2.30;99.90
39493;DHT22;25176;51.060;3.720;2023-02-08T05:40:40;2.30;99.90
39493;DHT22;25176;51.060;3.720;2023-02-08T05:43:05;2.30;99.90
39493;DHT22;25176;51.060;3.720;2023-02-08T05:45:31;2.20;99.90
39493;DHT22;25176;51.060;3.720;2023-02-08T05:47:57;2.30;99.90
39493;DHT22;25176;51.060;3.720;2023-02-08T05:50:22;2.20;99.90
39493;DHT22;25176;51.060;3.720;2023-02-08T05:52:48;2.20;99.90
39493;DHT22;25176;51.060;3.720;2023-02-08T05:55:13;2.20;99.90
39493;DHT22;25176;51.060;3.720;2023-02-08T05:57:39;2.10;99.90
39493;DHT22;25176;51.060;3.720;2023-02-08T06:00:04;2.10;99.90
39493;DHT22;25176;51.060;3.720;2023-02-08T06:02:30;2.10;99.90
39493;DHT22;25176;51.060;3.720;2023-02-08T06:04:56;2.20;99.90
39493;DHT22;25176;51.060;3.720;2023-02-08T06:07:22;2.10;99.90
39493;DHT22;25176;51.060;3.720;2023-02-08T06:09:47;1.90;99.90
39493;DHT22;25176;51.060;3.720;2023-02-08T06:12:13;1.90;99.90
39493;DHT22;25176;51.060;3.720;2023-02-08T06:14:38;2.00;99.90
39493;DHT22;25176;51.060;3.720;2023-02-08T06:17:03;2.00;99.90
39493;DHT22;25176;51.060;3.720;2023-02-08T06:19:29;2.10;99.90
39493;DHT22;25176;51.060;3.720;2023-02-08T06:21:54;2.00;99.90
39493;DHT22;25176;51.060;3.720;2023-02-08T06:24:20;1.60;99.90
39493;DHT22;25176;51.060;3.720;2023-02-08T06:26:45;1.50;99.90
39493;DHT22;25176;51.060;3.720;2023-02-08T06:29:11;1.60;99.90
39493;DHT22;25176;51.060;3.720;2023-02-08T06:31:37;1.60;99.90
39493;DHT22;25176;51.060;3.720;2023-02-08T06:34:02;1.70;99.90
39493;DHT22;25176;51.060;3.720;2023-02-08T06:36:27;1.90;99.90
39493;DHT22;25176;51.060;3.720;2023-02-08T06:38:53;1.90;99.90
39493;DHT22;25176;51.060;3.720;2023-02-08T06:41:18;2.10;99.90
39493;DHT22;25176;51.060;3.720;2023-02-08T06:43:44;2.20;99.90
39493;DHT22;25176;51.060;3.720;2023-02-08T06:46:09;2.20;99.90
39493;DHT22;25176;51.060;3.720;2023-02-08T06:48:35;2.20;99.90
39493;DHT22;25176;51.060;3.720;2023-02-08T06:51:01;2.40;99.90
39493;DHT22;25176;51.060;3.720;2023-02-08T06:53:26;2.40;99.90
39493;DHT22;25176;51.060;3.720;2023-02-08T06:55:52;2.40;99.90
39493;DHT22;25176;51.060;3.720;2023-02-08T06:58:18;2.40;99.90
39493;DHT22;25176;51.060;3.720;2023-02-08T07:00:44;2.40;99.90
39493;DHT22;25176;51.060;3.720;2023-02-08T07:03:10;2.30;99.90
39493;DHT22;25176;51.060;3.720;2023-02-08T07:05:36;2.20;99.90
39493;DHT22;25176;51.060;3.720;2023-02-08T07:08:02;2.00;99.90
39493;DHT22;25176;51.060;3.720;2023-02-08T07:10:28;1.90;99.90
39493;DHT22;25176;51.060;3.720;2023-02-08T07:12:55;2.00;99.90
39493;DHT22;25176;51.060;3.720;2023-02-08T07:15:22;2.10;99.90
39493;DHT22;25176;51.060;3.720;2023-02-08T07:17:47;2.20;99.90
39493;DHT22;25176;51.060;3.720;2023-02-08T07:20:13;2.40;99.90
39493;DHT22;25176;51.060;3.720;2023-02-08T07:22:39;2.40;99.90
39493;DHT22;25176;51.060;3.720;2023-02-08T07:25:09;2.30;99.90
39493;DHT22;25176;51.060;3.720;2023-02-08T07:27:37;2.20;99.90
39493;DHT22;25176;51.060;3.720;2023-02-08T07:30:03;2.30;99.90
39493;DHT22;25176;51.060;3.720;2023-02-08T07:32:29;2.40;99.90
39493;DHT22;25176;51.060;3.720;2023-02-08T07:34:55;2.50;99.90
39493;DHT22;25176;51.060;3.720;2023-02-08T07:37:22;2.40;99.90
39493;DHT22;25176;51.060;3.720;2023-02-08T07:39:52;2.10;99.90
39493;DHT22;25176;51.060;3.720;2023-02-08T07:42:17;2.00;99.90
39493;DHT22;25176;51.060;3.720;2023-02-08T07:44:48;2.00;99.90
39493;DHT22;25176;51.060;3.720;2023-02-08T07:47:15;2.00;99.90
39493;DHT22;25176;51.060;3.720;2023-02-08T07:49:41;2.10;99.90
39493;DHT22;25176;51.060;3.720;2023-02-08T07:52:06;2.20;99.90
39493;DHT22;25176;51.060;3.720;2023-02-08T07:54:32;2.40;99.90
39493;DHT22;25176;51.060;3.720;2023-02-08T07:56:57;2.40;99.90
39493;DHT22;25176;51.060;3.720;2023-02-08T07:59:23;2.50;99.90
39493;DHT22;25176;51.060;3.720;2023-02-08T08:01:49;2.60;99.90
39493;DHT22;25176;51.060;3.720;2023-02-08T08:04:20;2.70;99.90
39493;DHT22;25176;51.060;3.720;2023-02-08T08:07:07;2.80;99.90
39493;DHT22;25176;51.060;3.720;2023-02-08T08:10:11;2.80;99.60
39493;DHT22;25176;51.060;3.720;2023-02-08T08:48:36;13.00;83.10
39493;DHT22;25176;51.060;3.720;2023-02-08T08:54:04;16.80;68.30
39493;DHT22;25176;51.060;3.720;2023-02-08T08:56:55;15.60;63.70
39493;DHT22;25176;51.060;3.720;2023-02-08T08:59:26;15.30;64.20
39493;DHT22;25176;51.060;3.720;2023-02-08T09:01:51;16.80;65.40
39493;DHT22;25176;51.060;3.720;2023-02-08T09:04:18;18.00;60.00
39493;DHT22;25176;51.060;3.720;2023-02-08T09:06:50;19.70;57.60
39493;DHT22;25176;51.060;3.720;2023-02-08T09:09:18;18.60;55.20
39493;DHT22;25176;51.060;3.720;2023-02-08T09:11:47;20.20;54.70
39493;DHT22;25176;51.060;3.720;2023-02-08T09:14:13;20.80;52.70
39493;DHT22;25176;51.060;3.720;2023-02-08T09:16:39;22.20;51.50
39493;DHT22;25176;51.060;3.720;2023-02-08T09:19:06;23.50;48.20
39493;DHT22;25176;51.060;3.720;2023-02-08T09:21:38;24.90;46.50
39493;DHT22;25176;51.060;3.720;2023-02-08T09:24:37;26.00;45.50
39493;DHT22;25176;51.060;3.720;2023-02-08T09:27:15;27.40;42.00
39493;DHT22;25176;51.060;3.720;2023-02-08T09:29:48;28.40;41.10
39493;DHT22;25176;51.060;3.720;2023-02-08T09:32:14;28.40;38.60
39493;DHT22;25176;51.060;3.720;2023-02-08T09:34:40;28.50;38.00
39493;DHT22;25176;51.060;3.720;2023-02-08T09:37:07;28.30;36.90
39493;DHT22;25176;51.060;3.720;2023-02-08T09:39:32;28.00;37.50
39493;DHT22;25176;51.060;3.720;2023-02-08T09:47:31;28.40;36.80
39493;DHT22;25176;51.060;3.720;2023-02-08T10:06:16;28.20;35.60
39493;DHT22;25176;51.060;3.720;2023-02-08T10:08:44;28.70;35.20
39493;DHT22;25176;51.060;3.720;2023-02-08T10:20:16;26.90;34.50
39493;DHT22;25176;51.060;3.720;2023-02-08T10:22:56;24.90;35.20
39493;DHT22;25176;51.060;3.720;2023-02-08T10:33:21;18.10;40.70
39493;DHT22;25176;51.060;3.720;2023-02-08T10:36:20;16.60;42.40
39493;DHT22;25176;51.060;3.720;2023-02-08T10:39:15;15.60;43.40
39493;DHT22;25176;51.060;3.720;2023-02-08T10:42:19;13.00;47.80
39493;DHT22;25176;51.060;3.720;2023-02-08T10:48:08;11.40;50.50
39493;DHT22;25176;51.060;3.720;2023-02-08T10:50:45;11.40;51.40
39493;DHT22;25176;51.060;3.720;2023-02-08T10:53:13;10.80;52.70
39493;DHT22;25176;51.060;3.720;2023-02-08T10:55:40;10.50;53.00
39493;DHT22;25176;51.060;3.720;2023-02-08T10:58:06;9.80;53.50
39493;DHT22;25176;51.060;3.720;2023-02-08T11:00:39;9.00;54.90
39493;DHT22;25176;51.060;3.720;2023-02-08T11:03:14;8.70;55.80
39493;DHT22;25176;51.060;3.720;2023-02-08T11:05:40;8.50;55.50
39493;DHT22;25176;51.060;3.720;2023-02-08T11:08:11;8.30;54.40
39493;DHT22;25176;51.060;3.720;2023-02-08T11:10:38;8.10;55.10
39493;DHT22;25176;51.060;3.720;2023-02-08T11:13:14;8.20;56.30
39493;DHT22;25176;51.060;3.720;2023-02-08T11:15:48;8.20;56.60
39493;DHT22;25176;51.060;3.720;2023-02-08T11:18:22;8.00;57.00
39493;DHT22;25176;51.060;3.720;2023-02-08T11:20:49;8.00;56.50
39493;DHT22;25176;51.060;3.720;2023-02-08T11:23:19;8.10;56.80
39493;DHT22;25176;51.060;3.720;2023-02-08T11:25:46;8.00;56.60
39493;DHT22;25176;51.060;3.720;2023-02-08T11:28:22;8.00;55.50
39493;DHT22;25176;51.060;3.720;2023-02-08T11:30:55;7.60;54.40
39493;DHT22;25176;51.060;3.720;2023-02-08T11:33:21;7.70;54.90
39493;DHT22;25176;51.060;3.720;2023-02-08T11:36:20;7.70;53.80
39493;DHT22;25176;51.060;3.720;2023-02-08T11:38:40;7.70;53.90
39493;DHT22;25176;51.060;3.720;2023-02-08T11:41:12;7.60;54.20
39493;DHT22;25176;51.060;3.720;2023-02-08T11:43:39;7.70;53.60
39493;DHT22;25176;51.060;3.720;2023-02-08T11:46:06;7.80;52.80
39493;DHT22;25176;51.060;3.720;2023-02-08T11:48:44;7.90;53.00
39493;DHT22;25176;51.060;3.720;2023-02-08T11:51:14;8.10;52.80
39493;DHT22;25176;51.060;3.720;2023-02-08T11:53:48;8.20;53.10
39493;DHT22;25176;51.060;3.720;2023-02-08T11:58:59;8.00;54.10
39493;DHT22;25176;51.060;3.720;2023-02-08T12:01:27;7.80;53.30
39493;DHT22;25176;51.060;3.720;2023-02-08T12:03:54;7.90;53.60
39493;DHT22;25176;51.060;3.720;2023-02-08T12:06:33;7.90;52.70
39493;DHT22;25176;51.060;3.720;2023-02-08T12:09:21;8.00;52.70
39493;DHT22;25176;51.060;3.720;2023-02-08T12:19:36;8.30;50.90
39493;DHT22;25176;51.060;3.720;2023-02-08T12:22:05;8.20;49.70
39493;DHT22;25176;51.060;3.720;2023-02-08T12:29:53;8.40;49.60
39493;DHT22;25176;51.060;3.720;2023-02-08T12:32:32;8.20;50.10
39493;DHT22;25176;51.060;3.720;2023-02-08T12:37:41;8.00;50.80
39493;DHT22;25176;51.060;3.720;2023-02-08T12:43:18;7.90;50.90
39493;DHT22;25176;51.060;3.720;2023-02-08T12:48:30;8.10;50.20
39493;DHT22;25176;51.060;3.720;2023-02-08T12:53:35;8.50;49.40
39493;DHT22;25176;51.060;3.720;2023-02-08T12:56:05;8.70;48.90
39493;DHT22;25176;51.060;3.720;2023-02-08T12:58:45;8.60;46.50
39493;DHT22;25176;51.060;3.720;2023-02-08T13:01:19;8.80;46.20
39493;DHT22;25176;51.060;3.720;2023-02-08T13:06:22;8.90;46.50
39493;DHT22;25176;51.060;3.720;2023-02-08T13:08:54;8.90;46.50
39493;DHT22;25176;51.060;3.720;2023-02-08T13:11:26;9.00;44.80
39493;DHT22;25176;51.060;3.720;2023-02-08T13:13:56;9.10;45.40
39493;DHT22;25176;51.060;3.720;2023-02-08T13:16:23;9.20;45.00
39493;DHT22;25176;51.060;3.720;2023-02-08T13:18:54;9.10;44.90
39493;DHT22;25176;51.060;3.720;2023-02-08T13:21:25;8.90;43.60
39493;DHT22;25176;51.060;3.720;2023-02-08T13:23:52;8.80;43.90
39493;DHT22;25176;51.060;3.720;2023-02-08T13:26:19;8.90;44.90
39493;DHT22;25176;51.060;3.720;2023-02-08T13:28:52;9.00;44.60
39493;DHT22;25176;51.060;3.720;2023-02-08T13:31:19;9.10;45.00
39493;DHT22;25176;51.060;3.720;2023-02-08T13:33:56;9.00;44.10
39493;DHT22;25176;51.060;3.720;2023-02-08T13:36:25;8.80;44.70
39493;DHT22;25176;51.060;3.720;2023-02-08T13:38:51;8.80;44.70
39493;DHT22;25176;51.060;3.720;2023-02-08T13:41:18;8.80;45.00
39493;DHT22;25176;51.060;3.720;2023-02-08T13:46:16;8.80;44.60
39493;DHT22;25176;51.060;3.720;2023-02-08T13:48:43;8.80;44.70
39493;DHT22;25176;51.060;3.720;2023-02-08T13:56:36;8.90;42.80
39493;DHT22;25176;51.060;3.720;2023-02-08T13:59:02;8.80;42.00
39493;DHT22;25176;51.060;3.720;2023-02-08T14:01:29;8.60;40.90
39493;DHT22;25176;51.060;3.720;2023-02-08T14:04:14;8.60;41.50
39493;DHT22;25176;51.060;3.720;2023-02-08T14:06:50;8.60;41.40
39493;DHT22;25176;51.060;3.720;2023-02-08T14:09:23;8.60;41.90
39493;DHT22;25176;51.060;3.720;2023-02-08T14:11:53;8.60;41.30
39493;DHT22;25176;51.060;3.720;2023-02-08T14:14:29;8.50;41.20
39493;DHT22;25176;51.060;3.720;2023-02-08T14:19:28;8.60;41.90
39493;DHT22;25176;51.060;3.720;2023-02-08T14:24:46;8.80;41.50
39493;DHT22;25176;51.060;3.720;2023-02-08T14:27:17;8.80;41.20
39493;DHT22;25176;51.060;3.720;2023-02-08T14:29:54;8.90;41.20
39493;DHT22;25176;51.060;3.720;2023-02-08T14:32:21;8.90;41.30
39493;DHT22;25176;51.060;3.720;2023-02-08T14:34:47;8.80;41.30
39493;DHT22;25176;51.060;3.720;2023-02-08T14:39:45;8.80;41.20
39493;DHT22;25176;51.060;3.720;2023-02-08T14:42:15;8.80;41.00
39493;DHT22;25176;51.060;3.720;2023-02-08T14:45:00;8.80;41.20
39493;DHT22;25176;51.060;3.720;2023-02-08T14:49:54;8.90;40.40
39493;DHT22;25176;51.060;3.720;2023-02-08T14:52:23;8.90;40.70
39493;DHT22;25176;51.060;3.720;2023-02-08T14:54:55;8.90;40.90
39493;DHT22;25176;51.060;3.720;2023-02-08T14:59:49;8.90;40.70
39493;DHT22;25176;51.060;3.720;2023-02-08T15:02:19;8.70;40.60
39493;DHT22;25176;51.060;3.720;2023-02-08T15:04:46;8.70;41.00
39493;DHT22;25176;51.060;3.720;2023-02-08T15:09:40;8.80;42.10
39493;DHT22;25176;51.060;3.720;2023-02-08T15:12:09;8.80;41.80
39493;DHT22;25176;51.060;3.720;2023-02-08T15:14:38;8.90;42.00
39493;DHT22;25176;51.060;3.720;2023-02-08T15:17:04;8.90;42.00
39493;DHT22;25176;51.060;3.720;2023-02-08T15:19:34;8.90;42.40
39493;DHT22;25176;51.060;3.720;2023-02-08T15:27:34;8.60;42.70
39493;DHT22;25176;51.060;3.720;2023-02-08T15:29:59;8.60;42.80
39493;DHT22;25176;51.060;3.720;2023-02-08T15:32:25;8.50;42.50
39493;DHT22;25176;51.060;3.720;2023-02-08T15:34:56;8.60;43.60
39493;DHT22;25176;51.060;3.720;2023-02-08T15:37:22;8.60;44.00
39493;DHT22;25176;51.060;3.720;2023-02-08T15:39:49;8.60;43.90
39493;DHT22;25176;51.060;3.720;2023-02-08T15:42:19;8.70;43.90
39493;DHT22;25176;51.060;3.720;2023-02-08T15:44:45;8.70;43.80
39493;DHT22;25176;51.060;3.720;2023-02-08T15:47:15;8.60;43.80
39493;DHT22;25176;51.060;3.720;2023-02-08T15:49:42;8.60;43.80
39493;DHT22;25176;51.060;3.720;2023-02-08T15:52:10;8.70;44.40
39493;DHT22;25176;51.060;3.720;2023-02-08T15:54:39;8.70;44.20
39493;DHT22;25176;51.060;3.720;2023-02-08T15:57:08;8.70;44.80
39493;DHT22;25176;51.060;3.720;2023-02-08T15:59:40;8.70;45.20
39493;DHT22;25176;51.060;3.720;2023-02-08T16:02:20;8.60;45.10
39493;DHT22;25176;51.060;3.720;2023-02-08T16:04:46;8.70;45.20
39493;DHT22;25176;51.060;3.720;2023-02-08T16:07:27;8.60;45.30
39493;DHT22;25176;51.060;3.720;2023-02-08T16:09:54;8.60;45.70
39493;DHT22;25176;51.060;3.720;2023-02-08T16:12:24;8.50;45.70
39493;DHT22;25176;51.060;3.720;2023-02-08T16:14:50;8.50;46.00
39493;DHT22;25176;51.060;3.720;2023-02-08T16:17:32;8.40;45.90
39493;DHT22;25176;51.060;3.720;2023-02-08T16:20:00;8.40;46.10
39493;DHT22;25176;51.060;3.720;2023-02-08T16:22:30;8.40;46.70
39493;DHT22;25176;51.060;3.720;2023-02-08T16:27:46;8.40;46.50
39493;DHT22;25176;51.060;3.720;2023-02-08T16:30:18;8.40;46.50
39493;DHT22;25176;51.060;3.720;2023-02-08T16:32:44;8.40;47.20
39493;DHT22;25176;51.060;3.720;2023-02-08T16:35:18;8.40;46.70
39493;DHT22;25176;51.060;3.720;2023-02-08T16:37:44;8.40;46.70
39493;DHT22;25176;51.060;3.720;2023-02-08T16:43:14;8.40;47.50
39493;DHT22;25176;51.060;3.720;2023-02-08T16:45:39;8.30;47.20
39493;DHT22;25176;51.060;3.720;2023-02-08T16:48:05;8.40;47.80
39493;DHT22;25176;51.060;3.720;2023-02-08T16:50:50;8.30;47.60
39493;DHT22;25176;51.060;3.720;2023-02-08T16:53:15;8.30;48.20
39493;DHT22;25176;51.060;3.720;2023-02-08T16:55:41;8.30;48.40
39493;DHT22;25176;51.060;3.720;2023-02-08T16:58:11;8.20;48.40
39493;DHT22;25176;51.060;3.720;2023-02-08T17:00:37;8.20;48.70
39493;DHT22;25176;51.060;3.720;2023-02-08T17:03:03;8.20;48.80
39493;DHT22;25176;51.060;3.720;2023-02-08T17:05:29;8.20;49.00
39493;DHT22;25176;51.060;3.720;2023-02-08T17:07:55;8.10;49.30
39493;DHT22;25176;51.060;3.720;2023-02-08T17:10:23;8.00;49.60
39493;DHT22;25176;51.060;3.720;2023-02-08T17:12:49;7.90;49.70
39493;DHT22;25176;51.060;3.720;2023-02-08T17:15:15;7.90;50.30
39493;DHT22;25176;51.060;3.720;2023-02-08T17:17:40;7.90;50.70
39493;DHT22;25176;51.060;3.720;2023-02-08T17:20:11;7.90;51.00
39493;DHT22;25176;51.060;3.720;2023-02-08T17:22:40;7.80;50.90
39493;DHT22;25176;51.060;3.720;2023-02-08T17:25:06;7.80;51.30
39493;DHT22;25176;51.060;3.720;2023-02-08T17:27:31;7.90;51.70
39493;DHT22;25176;51.060;3.720;2023-02-08T17:29:57;7.80;51.40
39493;DHT22;25176;51.060;3.720;2023-02-08T17:32:22;7.90;51.70
39493;DHT22;25176;51.060;3.720;2023-02-08T17:34:48;7.90;51.90
39493;DHT22;25176;51.060;3.720;2023-02-08T17:37:13;7.90;52.10
39493;DHT22;25176;51.060;3.720;2023-02-08T17:39:39;7.80;52.20
39493;DHT22;25176;51.060;3.720;2023-02-08T17:42:04;7.90;52.60
39493;DHT22;25176;51.060;3.720;2023-02-08T17:44:29;7.80;52.60
39493;DHT22;25176;51.060;3.720;2023-02-08T17:46:55;7.80;52.60
39493;DHT22;25176;51.060;3.720;2023-02-08T17:49:20;7.80;52.50
39493;DHT22;25176;51.060;3.720;2023-02-08T17:51:46;7.80;52.60
39493;DHT22;25176;51.060;3.720;2023-02-08T17:54:11;7.70;52.60
39493;DHT22;25176;51.060;3.720;2023-02-08T17:56:37;7.70;52.90
39493;DHT22;25176;51.060;3.720;2023-02-08T17:59:03;7.60;53.00
39493;DHT22;25176;51.060;3.720;2023-02-08T18:01:29;7.60;53.40
39493;DHT22;25176;51.060;3.720;2023-02-08T18:03:55;7.60;53.30
39493;DHT22;25176;51.060;3.720;2023-02-08T18:06:21;7.50;53.50
39493;DHT22;25176;51.060;3.720;2023-02-08T18:08:49;7.50;54.20
39493;DHT22;25176;51.060;3.720;2023-02-08T18:11:16;7.60;53.90
39493;DHT22;25176;51.060;3.720;2023-02-08T18:13:44;7.60;53.90
39493;DHT22;25176;51.060;3.720;2023-02-08T18:16:11;7.60;53.60
39493;DHT22;25176;51.060;3.720;2023-02-08T18:18:36;7.60;54.20
39493;DHT22;25176;51.060;3.720;2023-02-08T18:21:07;7.70;54.00
39493;DHT22;25176;51.060;3.720;2023-02-08T18:23:33;7.70;54.00
39493;DHT22;25176;51.060;3.720;2023-02-08T18:26:12;7.70;54.60
39493;DHT22;25176;51.060;3.720;2023-02-08T18:28:37;7.60;54.80
39493;DHT22;25176;51.060;3.720;2023-02-08T18:31:04;7.60;55.00
39493;DHT22;25176;51.060;3.720;2023-02-08T18:33:30;7.50;54.70
39493;DHT22;25176;51.060;3.720;2023-02-08T18:35:55;7.50;55.10
39493;DHT22;25176;51.060;3.720;2023-02-08T18:38:21;7.50;55.20
39493;DHT22;25176;51.060;3.720;2023-02-08T18:40:46;7.50;55.80
39493;DHT22;25176;51.060;3.720;2023-02-08T18:43:12;7.50;56.10
39493;DHT22;25176;51.060;3.720;2023-02-08T18:45:37;7.50;56.20
39493;DHT22;25176;51.060;3.720;2023-02-08T18:48:02;7.50;56.60
39493;DHT22;25176;51.060;3.720;2023-02-08T18:50:28;7.50;57.10
39493;DHT22;25176;51.060;3.720;2023-02-08T18:52:54;7.40;56.80
39493;DHT22;25176;51.060;3.720;2023-02-08T18:55:19;7.40;56.80
39493;DHT22;25176;51.060;3.720;2023-02-08T18:57:47;7.40;57.00